sensor_id;sensor_type;location;lat;lon;timestamp;P1;durP1;ratioP1;P2;durP2;ratioP2
59062;SDS011;44851;45.648;9.004;2022-11-20T00:00:44;10.53;;;6.70;;
59062;SDS011;44851;45.648;9.004;2022-11-20T00:03:09;11.47;;;7.10;;
59062;SDS011;44851;45.648;9.004;2022-11-20T00:05:34;15.27;;;8.07;;
59062;SDS011;44851;45.648;9.004;2022-11-20T00:08:00;16.87;;;10.90;;
59062;SDS011;44851;45.648;9.004;2022-11-20T00:10:25;14.80;;;8.77;;
59062;SDS011;44851;45.648;9.004;2022-11-20T00:12:51;11.97;;;8.37;;
59062;SDS011;44851;45.648;9.004;2022-11-20T00:15:16;13.50;;;8.60;;
59062;SDS011;44851;45.648;9.004;2022-11-20T00:17:42;13.37;;;7.77;;
59062;SDS011;44851;45.648;9.004;2022-11-20T00:20:07;12.30;;;7.70;;
59062;SDS011;44851;45.648;9.004;2022-11-20T00:22:33;29.27;;;18.37;;
59062;SDS011;44851;45.648;9.004;2022-11-20T00:24:58;19.43;;;11.87;;
59062;SDS011;44851;45.648;9.004;2022-11-20T00:27:24;18.67;;;11.80;;
59062;SDS011;44851;45.648;9.004;2022-11-20T00:29:49;15.17;;;9.73;;
59062;SDS011;44851;45.648;9.004;2022-11-20T00:32:14;13.03;;;7.83;;
59062;SDS011;44851;45.648;9.004;2022-11-20T00:34:40;12.87;;;9.07;;
59062;SDS011;44851;45.648;9.004;2022-11-20T00:37:05;15.73;;;10.60;;
59062;SDS011;44851;45.648;9.004;2022-11-20T00:39:30;13.33;;;8.37;;
59062;SDS011;44851;45.648;9.004;2022-11-20T00:41:56;10.63;;;7.83;;
59062;SDS011;44851;45.648;9.004;2022-11-20T00:44:21;12.70;;;7.60;;
59062;SDS011;44851;45.648;9.004;2022-11-20T00:46:46;10.40;;;7.70;;
59062;SDS011;44851;45.648;9.004;2022-11-20T00:49:12;11.97;;;7.40;;
59062;SDS011;44851;45.648;9.004;2022-11-20T00:51:37;11.80;;;8.13;;
59062;SDS011;44851;45.648;9.004;2022-11-20T00:54:02;12.57;;;7.00;;
59062;SDS011;44851;45.648;9.004;2022-11-20T00:56:28;12.97;;;7.23;;
59062;SDS011;44851;45.648;9.004;2022-11-20T00:58:53;10.17;;;6.93;;
59062;SDS011;44851;45.648;9.004;2022-11-20T01:01:20;9.07;;;6.40;;
59062;SDS011;44851;45.648;9.004;2022-11-20T01:03:49;9.33;;;6.60;;
59062;SDS011;44851;45.648;9.004;2022-11-20T01:06:16;9.03;;;6.20;;
59062;SDS011;44851;45.648;9.004;2022-11-20T01:08:43;9.77;;;6.23;;
59062;SDS011;44851;45.648;9.004;2022-11-20T01:11:10;8.33;;;6.47;;
59062;SDS011;44851;45.648;9.004;2022-11-20T01:13:40;6.50;;;5.90;;
59062;SDS011;44851;45.648;9.004;2022-11-20T01:18:57;8.57;;;6.53;;
59062;SDS011;44851;45.648;9.004;2022-11-20T01:21:24;7.67;;;6.00;;
59062;SDS011;44851;45.648;9.004;2022-11-20T01:23:55;9.57;;;5.90;;
59062;SDS011;44851;45.648;9.004;2022-11-20T01:26:21;8.10;;;5.63;;
59062;SDS011;44851;45.648;9.004;2022-11-20T01:28:48;7.57;;;5.20;;
59062;SDS011;44851;45.648;9.004;2022-11-20T01:31:16;7.77;;;5.50;;
59062;SDS011;44851;45.648;9.004;2022-11-20T01:33:44;6.10;;;4.63;;
59062;SDS011;44851;45.648;9.004;2022-11-20T01:36:11;7.87;;;5.10;;
59062;SDS011;44851;45.648;9.004;2022-11-20T01:38:37;9.27;;;4.87;;
59062;SDS011;44851;45.648;9.004;2022-11-20T01:41:03;5.73;;;4.27;;
59062;SDS011;44851;45.648;9.004;2022-11-20T01:43:29;5.70;;;4.30;;
59062;SDS011;44851;45.648;9.004;2022-11-20T01:45:59;7.50;;;4.50;;
59062;SDS011;44851;45.648;9.004;2022-11-20T01:48:26;7.60;;;4.50;;
59062;SDS011;44851;45.648;9.004;2022-11-20T01:51:18;4.97;;;4.43;;
59062;SDS011;44851;45.648;9.004;2022-11-20T01:53:49;7.50;;;5.03;;
59062;SDS011;44851;45.648;9.004;2022-11-20T01:56:15;7.97;;;5.10;;
59062;SDS011;44851;45.648;9.004;2022-11-20T01:58:47;11.60;;;5.93;;
59062;SDS011;44851;45.648;9.004;2022-11-20T02:01:16;7.77;;;5.37;;
59062;SDS011;44851;45.648;9.004;2022-11-20T02:03:42;7.43;;;5.13;;
59062;SDS011;44851;45.648;9.004;2022-11-20T02:06:11;7.37;;;5.10;;
59062;SDS011;44851;45.648;9.004;2022-11-20T02:08:41;6.70;;;5.13;;
59062;SDS011;44851;45.648;9.004;2022-11-20T02:11:06;6.63;;;4.10;;
59062;SDS011;44851;45.648;9.004;2022-11-20T02:13:32;6.50;;;4.83;;
59062;SDS011;44851;45.648;9.004;2022-11-20T02:16:08;6.60;;;4.70;;
59062;SDS011;44851;45.648;9.004;2022-11-20T02:18:36;6.73;;;5.13;;
59062;SDS011;44851;45.648;9.004;2022-11-20T02:21:07;8.67;;;5.17;;
59062;SDS011;44851;45.648;9.004;2022-11-20T02:26:17;5.20;;;4.30;;
59062;SDS011;44851;45.648;9.004;2022-11-20T02:28:46;6.03;;;4.90;;
59062;SDS011;44851;45.648;9.004;2022-11-20T02:31:12;6.50;;;4.50;;
59062;SDS011;44851;45.648;9.004;2022-11-20T02:33:37;5.53;;;4.33;;
59062;SDS011;44851;45.648;9.004;2022-11-20T02:36:03;4.73;;;3.77;;
59062;SDS011;44851;45.648;9.004;2022-11-20T02:38:28;5.63;;;4.20;;
59062;SDS011;44851;45.648;9.004;2022-11-20T02:40:53;5.07;;;3.80;;
59062;SDS011;44851;45.648;9.004;2022-11-20T02:43:19;5.17;;;4.20;;
59062;SDS011;44851;45.648;9.004;2022-11-20T02:45:44;6.47;;;3.27;;
59062;SDS011;44851;45.648;9.004;2022-11-20T02:48:09;6.27;;;3.50;;
59062;SDS011;44851;45.648;9.004;2022-11-20T02:50:38;3.83;;;3.40;;
59062;SDS011;44851;45.648;9.004;2022-11-20T02:53:04;6.23;;;3.97;;
59062;SDS011;44851;45.648;9.004;2022-11-20T02:55:30;4.67;;;3.60;;
59062;SDS011;44851;45.648;9.004;2022-11-20T02:57:55;4.40;;;3.53;;
59062;SDS011;44851;45.648;9.004;2022-11-20T03:00:20;4.83;;;3.60;;
59062;SDS011;44851;45.648;9.004;2022-11-20T03:02:46;4.57;;;3.70;;
59062;SDS011;44851;45.648;9.004;2022-11-20T03:05:11;4.80;;;3.23;;
59062;SDS011;44851;45.648;9.004;2022-11-20T03:07:36;5.27;;;3.77;;
59062;SDS011;44851;45.648;9.004;2022-11-20T03:10:02;4.07;;;3.63;;
59062;SDS011;44851;45.648;9.004;2022-11-20T03:12:28;5.83;;;4.33;;
59062;SDS011;44851;45.648;9.004;2022-11-20T03:14:54;4.30;;;3.53;;
59062;SDS011;44851;45.648;9.004;2022-11-20T03:17:19;5.47;;;3.80;;
59062;SDS011;44851;45.648;9.004;2022-11-20T03:19:44;7.50;;;4.30;;
59062;SDS011;44851;45.648;9.004;2022-11-20T03:22:10;5.17;;;3.97;;
59062;SDS011;44851;45.648;9.004;2022-11-20T03:24:35;5.87;;;4.33;;
59062;SDS011;44851;45.648;9.004;2022-11-20T03:27:00;5.77;;;4.00;;
59062;SDS011;44851;45.648;9.004;2022-11-20T03:29:25;6.20;;;4.03;;
59062;SDS011;44851;45.648;9.004;2022-11-20T03:31:51;4.13;;;3.70;;
59062;SDS011;44851;45.648;9.004;2022-11-20T03:34:16;5.83;;;3.53;;
59062;SDS011;44851;45.648;9.004;2022-11-20T03:36:42;5.10;;;3.87;;
59062;SDS011;44851;45.648;9.004;2022-11-20T03:39:07;4.23;;;3.47;;
59062;SDS011;44851;45.648;9.004;2022-11-20T03:41:36;3.93;;;3.37;;
59062;SDS011;44851;45.648;9.004;2022-11-20T03:44:05;5.93;;;4.40;;
59062;SDS011;44851;45.648;9.004;2022-11-20T03:46:31;5.33;;;3.80;;
59062;SDS011;44851;45.648;9.004;2022-11-20T03:48:57;5.97;;;3.70;;
59062;SDS011;44851;45.648;9.004;2022-11-20T03:51:26;4.00;;;3.43;;
59062;SDS011;44851;45.648;9.004;2022-11-20T03:53:54;3.43;;;3.10;;
59062;SDS011;44851;45.648;9.004;2022-11-20T03:56:22;4.33;;;3.00;;
59062;SDS011;44851;45.648;9.004;2022-11-20T03:58:49;3.93;;;3.43;;
59062;SDS011;44851;45.648;9.004;2022-11-20T04:01:15;3.50;;;2.90;;
59062;SDS011;44851;45.648;9.004;2022-11-20T04:03:42;4.80;;;3.10;;
59062;SDS011;44851;45.648;9.004;2022-11-20T04:06:10;3.90;;;2.90;;
59062;SDS011;44851;45.648;9.004;2022-11-20T04:08:40;4.07;;;3.30;;
59062;SDS011;44851;45.648;9.004;2022-11-20T04:13:42;4.87;;;2.93;;
59062;SDS011;44851;45.648;9.004;2022-11-20T04:16:10;3.80;;;2.90;;
59062;SDS011;44851;45.648;9.004;2022-11-20T04:18:36;4.40;;;2.87;;
59062;SDS011;44851;45.648;9.004;2022-11-20T04:21:02;3.53;;;2.70;;
59062;SDS011;44851;45.648;9.004;2022-11-20T04:23:28;3.10;;;2.80;;
59062;SDS011;44851;45.648;9.004;2022-11-20T04:25:54;3.30;;;2.97;;
59062;SDS011;44851;45.648;9.004;2022-11-20T04:28:19;3.77;;;2.90;;
59062;SDS011;44851;45.648;9.004;2022-11-20T04:30:45;3.50;;;2.80;;
59062;SDS011;44851;45.648;9.004;2022-11-20T04:33:11;3.17;;;2.80;;
59062;SDS011;44851;45.648;9.004;2022-11-20T04:35:36;4.20;;;3.00;;
59062;SDS011;44851;45.648;9.004;2022-11-20T04:38:02;3.23;;;2.50;;
59062;SDS011;44851;45.648;9.004;2022-11-20T04:40:28;2.80;;;2.43;;
59062;SDS011;44851;45.648;9.004;2022-11-20T04:42:54;5.77;;;2.77;;
59062;SDS011;44851;45.648;9.004;2022-11-20T04:45:20;2.77;;;2.53;;
59062;SDS011;44851;45.648;9.004;2022-11-20T04:47:46;2.67;;;2.17;;
59062;SDS011;44851;45.648;9.004;2022-11-20T04:50:11;2.77;;;2.17;;
59062;SDS011;44851;45.648;9.004;2022-11-20T04:52:36;2.83;;;2.60;;
59062;SDS011;44851;45.648;9.004;2022-11-20T04:55:02;2.87;;;2.33;;
59062;SDS011;44851;45.648;9.004;2022-11-20T04:57:27;2.53;;;2.23;;
59062;SDS011;44851;45.648;9.004;2022-11-20T04:59:52;4.17;;;2.50;;
59062;SDS011;44851;45.648;9.004;2022-11-20T05:02:18;2.30;;;2.10;;
59062;SDS011;44851;45.648;9.004;2022-11-20T05:04:43;2.83;;;1.87;;
59062;SDS011;44851;45.648;9.004;2022-11-20T05:07:08;2.40;;;1.70;;
59062;SDS011;44851;45.648;9.004;2022-11-20T05:09:34;3.13;;;1.90;;
59062;SDS011;44851;45.648;9.004;2022-11-20T05:11:59;4.07;;;2.33;;
59062;SDS011;44851;45.648;9.004;2022-11-20T05:14:24;3.87;;;2.30;;
59062;SDS011;44851;45.648;9.004;2022-11-20T05:16:49;2.00;;;1.80;;
59062;SDS011;44851;45.648;9.004;2022-11-20T05:19:15;2.37;;;1.63;;
59062;SDS011;44851;45.648;9.004;2022-11-20T05:21:40;2.33;;;1.80;;
59062;SDS011;44851;45.648;9.004;2022-11-20T05:24:05;1.60;;;1.50;;
59062;SDS011;44851;45.648;9.004;2022-11-20T05:26:31;3.40;;;1.80;;
59062;SDS011;44851;45.648;9.004;2022-11-20T05:28:57;2.20;;;2.00;;
59062;SDS011;44851;45.648;9.004;2022-11-20T05:31:23;2.73;;;1.90;;
59062;SDS011;44851;45.648;9.004;2022-11-20T05:33:49;1.90;;;1.60;;
59062;SDS011;44851;45.648;9.004;2022-11-20T05:36:15;3.13;;;2.30;;
59062;SDS011;44851;45.648;9.004;2022-11-20T05:38:41;2.80;;;2.03;;
59062;SDS011;44851;45.648;9.004;2022-11-20T05:43:34;1.87;;;1.60;;
59062;SDS011;44851;45.648;9.004;2022-11-20T05:46:01;1.83;;;1.70;;
59062;SDS011;44851;45.648;9.004;2022-11-20T05:48:27;1.80;;;1.57;;
59062;SDS011;44851;45.648;9.004;2022-11-20T05:50:53;2.13;;;1.50;;
59062;SDS011;44851;45.648;9.004;2022-11-20T05:53:18;3.33;;;2.13;;
59062;SDS011;44851;45.648;9.004;2022-11-20T05:55:44;1.77;;;1.60;;
59062;SDS011;44851;45.648;9.004;2022-11-20T05:58:09;1.80;;;1.70;;
59062;SDS011;44851;45.648;9.004;2022-11-20T06:00:34;3.90;;;2.20;;
59062;SDS011;44851;45.648;9.004;2022-11-20T06:03:00;2.33;;;1.80;;
59062;SDS011;44851;45.648;9.004;2022-11-20T06:05:25;1.90;;;1.77;;
59062;SDS011;44851;45.648;9.004;2022-11-20T06:07:51;1.90;;;1.60;;
59062;SDS011;44851;45.648;9.004;2022-11-20T06:10:16;2.53;;;2.00;;
59062;SDS011;44851;45.648;9.004;2022-11-20T06:12:41;3.10;;;1.90;;
59062;SDS011;44851;45.648;9.004;2022-11-20T06:15:07;2.83;;;1.90;;
59062;SDS011;44851;45.648;9.004;2022-11-20T06:17:33;2.70;;;2.00;;
59062;SDS011;44851;45.648;9.004;2022-11-20T06:19:58;1.90;;;1.70;;
59062;SDS011;44851;45.648;9.004;2022-11-20T06:22:23;2.10;;;1.60;;
59062;SDS011;44851;45.648;9.004;2022-11-20T06:24:48;2.37;;;2.00;;
59062;SDS011;44851;45.648;9.004;2022-11-20T06:27:14;2.23;;;1.87;;
59062;SDS011;44851;45.648;9.004;2022-11-20T06:29:39;2.87;;;1.97;;
59062;SDS011;44851;45.648;9.004;2022-11-20T06:32:04;2.33;;;2.00;;
59062;SDS011;44851;45.648;9.004;2022-11-20T06:34:30;2.07;;;1.87;;
59062;SDS011;44851;45.648;9.004;2022-11-20T06:36:55;2.40;;;2.20;;
59062;SDS011;44851;45.648;9.004;2022-11-20T06:39:20;1.97;;;1.63;;
59062;SDS011;44851;45.648;9.004;2022-11-20T06:41:46;2.03;;;1.77;;
59062;SDS011;44851;45.648;9.004;2022-11-20T06:44:11;2.63;;;1.97;;
59062;SDS011;44851;45.648;9.004;2022-11-20T06:46:36;3.60;;;2.00;;
59062;SDS011;44851;45.648;9.004;2022-11-20T06:49:02;3.67;;;1.93;;
59062;SDS011;44851;45.648;9.004;2022-11-20T06:51:27;3.40;;;2.13;;
59062;SDS011;44851;45.648;9.004;2022-11-20T06:53:52;8.33;;;4.80;;
59062;SDS011;44851;45.648;9.004;2022-11-20T06:56:18;14.67;;;6.37;;
59062;SDS011;44851;45.648;9.004;2022-11-20T06:58:43;15.43;;;9.30;;
59062;SDS011;44851;45.648;9.004;2022-11-20T07:01:10;18.67;;;10.83;;
59062;SDS011;44851;45.648;9.004;2022-11-20T07:03:37;13.93;;;9.07;;
59062;SDS011;44851;45.648;9.004;2022-11-20T07:06:03;6.60;;;4.73;;
59062;SDS011;44851;45.648;9.004;2022-11-20T07:08:29;7.33;;;4.17;;
59062;SDS011;44851;45.648;9.004;2022-11-20T07:10:58;4.93;;;3.63;;
59062;SDS011;44851;45.648;9.004;2022-11-20T07:13:25;3.90;;;2.63;;
59062;SDS011;44851;45.648;9.004;2022-11-20T07:15:51;2.93;;;2.37;;
59062;SDS011;44851;45.648;9.004;2022-11-20T07:18:17;2.53;;;2.30;;
59062;SDS011;44851;45.648;9.004;2022-11-20T07:20:42;2.40;;;2.20;;
59062;SDS011;44851;45.648;9.004;2022-11-20T07:23:07;2.57;;;2.00;;
59062;SDS011;44851;45.648;9.004;2022-11-20T07:25:33;4.00;;;2.33;;
59062;SDS011;44851;45.648;9.004;2022-11-20T07:27:58;3.00;;;2.00;;
59062;SDS011;44851;45.648;9.004;2022-11-20T07:30:25;2.37;;;1.90;;
59062;SDS011;44851;45.648;9.004;2022-11-20T07:32:51;3.07;;;2.10;;
59062;SDS011;44851;45.648;9.004;2022-11-20T07:35:18;3.10;;;2.57;;
59062;SDS011;44851;45.648;9.004;2022-11-20T07:37:43;3.83;;;2.30;;
59062;SDS011;44851;45.648;9.004;2022-11-20T07:40:10;3.00;;;2.37;;
59062;SDS011;44851;45.648;9.004;2022-11-20T07:42:46;3.13;;;2.23;;
59062;SDS011;44851;45.648;9.004;2022-11-20T07:45:16;3.87;;;2.97;;
59062;SDS011;44851;45.648;9.004;2022-11-20T07:47:42;3.07;;;2.40;;
59062;SDS011;44851;45.648;9.004;2022-11-20T07:50:08;5.03;;;3.10;;
59062;SDS011;44851;45.648;9.004;2022-11-20T07:52:33;3.37;;;2.60;;
59062;SDS011;44851;45.648;9.004;2022-11-20T07:54:58;4.13;;;2.53;;
59062;SDS011;44851;45.648;9.004;2022-11-20T07:57:24;3.37;;;2.33;;
59062;SDS011;44851;45.648;9.004;2022-11-20T07:59:49;2.47;;;2.27;;
59062;SDS011;44851;45.648;9.004;2022-11-20T08:02:14;2.60;;;2.30;;
59062;SDS011;44851;45.648;9.004;2022-11-20T08:04:40;3.13;;;2.50;;
59062;SDS011;44851;45.648;9.004;2022-11-20T08:07:05;3.40;;;2.50;;
59062;SDS011;44851;45.648;9.004;2022-11-20T08:09:30;3.87;;;2.27;;
59062;SDS011;44851;45.648;9.004;2022-11-20T08:11:55;3.00;;;2.40;;
59062;SDS011;44851;45.648;9.004;2022-11-20T08:14:39;4.17;;;2.70;;
59062;SDS011;44851;45.648;9.004;2022-11-20T08:17:05;4.53;;;2.70;;
59062;SDS011;44851;45.648;9.004;2022-11-20T08:19:30;4.23;;;2.87;;
59062;SDS011;44851;45.648;9.004;2022-11-20T08:21:55;3.53;;;2.97;;
59062;SDS011;44851;45.648;9.004;2022-11-20T08:24:21;6.77;;;2.77;;
59062;SDS011;44851;45.648;9.004;2022-11-20T08:26:46;3.97;;;3.03;;
59062;SDS011;44851;45.648;9.004;2022-11-20T08:29:11;3.60;;;2.70;;
59062;SDS011;44851;45.648;9.004;2022-11-20T08:31:37;3.23;;;2.70;;
59062;SDS011;44851;45.648;9.004;2022-11-20T08:34:03;3.67;;;2.73;;
59062;SDS011;44851;45.648;9.004;2022-11-20T08:36:28;2.60;;;2.40;;
59062;SDS011;44851;45.648;9.004;2022-11-20T08:38:54;3.67;;;2.80;;
59062;SDS011;44851;45.648;9.004;2022-11-20T08:41:20;3.30;;;2.70;;
59062;SDS011;44851;45.648;9.004;2022-11-20T08:43:50;3.60;;;3.20;;
59062;SDS011;44851;45.648;9.004;2022-11-20T08:46:17;5.10;;;3.37;;
59062;SDS011;44851;45.648;9.004;2022-11-20T08:48:44;9.30;;;4.03;;
59062;SDS011;44851;45.648;9.004;2022-11-20T08:51:10;6.03;;;4.20;;
59062;SDS011;44851;45.648;9.004;2022-11-20T08:53:36;8.43;;;5.60;;
59062;SDS011;44851;45.648;9.004;2022-11-20T08:56:01;13.10;;;8.47;;
59062;SDS011;44851;45.648;9.004;2022-11-20T08:58:27;15.07;;;10.17;;
59062;SDS011;44851;45.648;9.004;2022-11-20T09:00:52;9.50;;;6.77;;
59062;SDS011;44851;45.648;9.004;2022-11-20T09:03:17;5.97;;;4.33;;
59062;SDS011;44851;45.648;9.004;2022-11-20T09:05:43;4.07;;;3.50;;
59062;SDS011;44851;45.648;9.004;2022-11-20T09:08:08;4.03;;;3.53;;
59062;SDS011;44851;45.648;9.004;2022-11-20T09:10:34;3.23;;;2.80;;
59062;SDS011;44851;45.648;9.004;2022-11-20T09:12:59;3.47;;;3.13;;
59062;SDS011;44851;45.648;9.004;2022-11-20T09:15:25;5.50;;;2.70;;
59062;SDS011;44851;45.648;9.004;2022-11-20T09:17:51;4.60;;;3.17;;
59062;SDS011;44851;45.648;9.004;2022-11-20T09:20:21;3.83;;;2.83;;
59062;SDS011;44851;45.648;9.004;2022-11-20T09:22:47;5.17;;;3.70;;
59062;SDS011;44851;45.648;9.004;2022-11-20T09:25:13;3.33;;;3.03;;
59062;SDS011;44851;45.648;9.004;2022-11-20T09:27:38;3.93;;;3.40;;
59062;SDS011;44851;45.648;9.004;2022-11-20T09:30:04;4.00;;;3.30;;
59062;SDS011;44851;45.648;9.004;2022-11-20T09:32:29;3.67;;;3.00;;
59062;SDS011;44851;45.648;9.004;2022-11-20T09:34:55;3.33;;;2.87;;
59062;SDS011;44851;45.648;9.004;2022-11-20T09:37:20;4.50;;;3.00;;
59062;SDS011;44851;45.648;9.004;2022-11-20T09:39:46;3.87;;;3.47;;
59062;SDS011;44851;45.648;9.004;2022-11-20T09:42:14;5.27;;;3.70;;
59062;SDS011;44851;45.648;9.004;2022-11-20T09:55:45;5.63;;;3.53;;
59062;SDS011;44851;45.648;9.004;2022-11-20T10:00:56;3.50;;;2.57;;
59062;SDS011;44851;45.648;9.004;2022-11-20T10:04:29;5.97;;;3.00;;
59062;SDS011;44851;45.648;9.004;2022-11-20T10:06:43;3.33;;;2.30;;
59062;SDS011;44851;45.648;9.004;2022-11-20T10:09:21;2.63;;;2.20;;
59062;SDS011;44851;45.648;9.004;2022-11-20T10:14:56;4.13;;;2.80;;
59062;SDS011;44851;45.648;9.004;2022-11-20T10:26:15;3.37;;;2.43;;
59062;SDS011;44851;45.648;9.004;2022-11-20T10:31:59;4.73;;;3.10;;
59062;SDS011;44851;45.648;9.004;2022-11-20T10:42:43;3.50;;;3.10;;
59062;SDS011;44851;45.648;9.004;2022-11-20T10:47:45;3.00;;;2.70;;
59062;SDS011;44851;45.648;9.004;2022-11-20T10:50:12;3.47;;;2.90;;
59062;SDS011;44851;45.648;9.004;2022-11-20T10:55:50;4.73;;;3.80;;
59062;SDS011;44851;45.648;9.004;2022-11-20T10:58:32;4.90;;;4.50;;
59062;SDS011;44851;45.648;9.004;2022-11-20T11:01:03;4.27;;;3.87;;
59062;SDS011;44851;45.648;9.004;2022-11-20T11:03:38;5.97;;;4.57;;
59062;SDS011;44851;45.648;9.004;2022-11-20T11:08:38;4.50;;;3.43;;
59062;SDS011;44851;45.648;9.004;2022-11-20T11:13:47;3.60;;;3.00;;
59062;SDS011;44851;45.648;9.004;2022-11-20T11:16:22;4.70;;;4.30;;
59062;SDS011;44851;45.648;9.004;2022-11-20T11:18:49;3.27;;;2.97;;
59062;SDS011;44851;45.648;9.004;2022-11-20T11:21:22;3.63;;;3.10;;
59062;SDS011;44851;45.648;9.004;2022-11-20T11:23:57;2.80;;;2.60;;
59062;SDS011;44851;45.648;9.004;2022-11-20T11:26:27;3.10;;;2.90;;
59062;SDS011;44851;45.648;9.004;2022-11-20T11:28:59;2.83;;;2.43;;
59062;SDS011;44851;45.648;9.004;2022-11-20T11:31:27;3.40;;;2.30;;
59062;SDS011;44851;45.648;9.004;2022-11-20T11:34:03;3.27;;;2.70;;
59062;SDS011;44851;45.648;9.004;2022-11-20T11:36:33;4.20;;;3.43;;
59062;SDS011;44851;45.648;9.004;2022-11-20T11:39:00;3.87;;;3.23;;
59062;SDS011;44851;45.648;9.004;2022-11-20T11:41:29;3.70;;;3.10;;
59062;SDS011;44851;45.648;9.004;2022-11-20T11:47:11;3.87;;;3.27;;
59062;SDS011;44851;45.648;9.004;2022-11-20T11:49:47;4.23;;;3.83;;
59062;SDS011;44851;45.648;9.004;2022-11-20T11:52:15;3.70;;;2.93;;
59062;SDS011;44851;45.648;9.004;2022-11-20T11:54:45;4.13;;;2.70;;
59062;SDS011;44851;45.648;9.004;2022-11-20T11:57:19;3.13;;;2.77;;
59062;SDS011;44851;45.648;9.004;2022-11-20T12:05:24;3.90;;;3.07;;
59062;SDS011;44851;45.648;9.004;2022-11-20T12:08:00;3.87;;;3.23;;
59062;SDS011;44851;45.648;9.004;2022-11-20T12:15:59;4.73;;;3.57;;
59062;SDS011;44851;45.648;9.004;2022-11-20T12:18:26;4.73;;;3.20;;
59062;SDS011;44851;45.648;9.004;2022-11-20T12:26:34;6.87;;;4.10;;
59062;SDS011;44851;45.648;9.004;2022-11-20T12:29:20;3.90;;;3.50;;
59062;SDS011;44851;45.648;9.004;2022-11-20T12:31:56;3.97;;;3.67;;
59062;SDS011;44851;45.648;9.004;2022-11-20T12:38:00;5.77;;;4.53;;
59062;SDS011;44851;45.648;9.004;2022-11-20T12:43:13;5.90;;;4.90;;
59062;SDS011;44851;45.648;9.004;2022-11-20T12:56:41;5.57;;;4.83;;
59062;SDS011;44851;45.648;9.004;2022-11-20T13:02:03;7.17;;;4.97;;
59062;SDS011;44851;45.648;9.004;2022-11-20T13:04:47;5.10;;;4.37;;
59062;SDS011;44851;45.648;9.004;2022-11-20T13:07:23;4.63;;;3.60;;
59062;SDS011;44851;45.648;9.004;2022-11-20T13:09:51;4.67;;;3.73;;
59062;SDS011;44851;45.648;9.004;2022-11-20T13:15:01;4.13;;;3.73;;
59062;SDS011;44851;45.648;9.004;2022-11-20T13:18:01;7.37;;;5.60;;
59062;SDS011;44851;45.648;9.004;2022-11-20T13:20:29;4.63;;;3.70;;
59062;SDS011;44851;45.648;9.004;2022-11-20T13:22:56;3.77;;;3.23;;
59062;SDS011;44851;45.648;9.004;2022-11-20T13:25:31;3.80;;;3.40;;
59062;SDS011;44851;45.648;9.004;2022-11-20T13:27:59;4.00;;;3.50;;
59062;SDS011;44851;45.648;9.004;2022-11-20T13:30:29;4.37;;;3.50;;
59062;SDS011;44851;45.648;9.004;2022-11-20T13:32:57;3.93;;;3.53;;
59062;SDS011;44851;45.648;9.004;2022-11-20T13:40:26;3.60;;;3.30;;
59062;SDS011;44851;45.648;9.004;2022-11-20T13:47:48;5.17;;;3.90;;
59062;SDS011;44851;45.648;9.004;2022-11-20T13:50:14;6.10;;;4.13;;
59062;SDS011;44851;45.648;9.004;2022-11-20T13:53:04;4.80;;;3.60;;
59062;SDS011;44851;45.648;9.004;2022-11-20T14:01:15;4.13;;;3.73;;
59062;SDS011;44851;45.648;9.004;2022-11-20T14:03:44;4.23;;;3.40;;
59062;SDS011;44851;45.648;9.004;2022-11-20T14:06:44;6.13;;;3.63;;
59062;SDS011;44851;45.648;9.004;2022-11-20T14:09:12;4.50;;;3.47;;
59062;SDS011;44851;45.648;9.004;2022-11-20T14:11:49;5.17;;;3.90;;
59062;SDS011;44851;45.648;9.004;2022-11-20T14:14:15;5.30;;;3.23;;
59062;SDS011;44851;45.648;9.004;2022-11-20T14:16:43;4.20;;;3.77;;
59062;SDS011;44851;45.648;9.004;2022-11-20T14:21:44;4.03;;;2.90;;
59062;SDS011;44851;45.648;9.004;2022-11-20T14:24:11;3.90;;;2.93;;
59062;SDS011;44851;45.648;9.004;2022-11-20T14:26:38;3.67;;;2.90;;
59062;SDS011;44851;45.648;9.004;2022-11-20T14:29:21;4.30;;;3.13;;
59062;SDS011;44851;45.648;9.004;2022-11-20T14:31:52;5.90;;;3.30;;
59062;SDS011;44851;45.648;9.004;2022-11-20T14:34:22;3.87;;;2.80;;
59062;SDS011;44851;45.648;9.004;2022-11-20T14:36:52;4.70;;;2.87;;
59062;SDS011;44851;45.648;9.004;2022-11-20T14:39:22;5.03;;;3.00;;
59062;SDS011;44851;45.648;9.004;2022-11-20T14:41:59;4.53;;;3.20;;
59062;SDS011;44851;45.648;9.004;2022-11-20T14:44:31;5.57;;;3.93;;
59062;SDS011;44851;45.648;9.004;2022-11-20T14:46:59;5.07;;;3.60;;
59062;SDS011;44851;45.648;9.004;2022-11-20T14:49:25;5.17;;;3.93;;
59062;SDS011;44851;45.648;9.004;2022-11-20T14:51:59;3.97;;;3.27;;
59062;SDS011;44851;45.648;9.004;2022-11-20T14:54:26;5.13;;;3.47;;
59062;SDS011;44851;45.648;9.004;2022-11-20T14:56:56;5.80;;;3.70;;
59062;SDS011;44851;45.648;9.004;2022-11-20T14:59:24;5.40;;;4.10;;
59062;SDS011;44851;45.648;9.004;2022-11-20T15:01:54;5.50;;;3.60;;
59062;SDS011;44851;45.648;9.004;2022-11-20T15:04:22;8.57;;;3.50;;
59062;SDS011;44851;45.648;9.004;2022-11-20T15:06:52;6.80;;;3.53;;
59062;SDS011;44851;45.648;9.004;2022-11-20T15:09:19;4.50;;;3.40;;
59062;SDS011;44851;45.648;9.004;2022-11-20T15:11:59;5.80;;;3.60;;
59062;SDS011;44851;45.648;9.004;2022-11-20T15:14:27;11.67;;;6.17;;
59062;SDS011;44851;45.648;9.004;2022-11-20T15:16:54;7.47;;;4.60;;
59062;SDS011;44851;45.648;9.004;2022-11-20T15:19:20;6.60;;;4.70;;
59062;SDS011;44851;45.648;9.004;2022-11-20T15:21:48;6.77;;;4.77;;
59062;SDS011;44851;45.648;9.004;2022-11-20T15:24:14;5.67;;;4.07;;
59062;SDS011;44851;45.648;9.004;2022-11-20T15:26:39;6.33;;;3.63;;
59062;SDS011;44851;45.648;9.004;2022-11-20T15:29:05;6.10;;;3.57;;
59062;SDS011;44851;45.648;9.004;2022-11-20T15:31:34;6.30;;;4.87;;
59062;SDS011;44851;45.648;9.004;2022-11-20T15:33:59;6.20;;;3.90;;
59062;SDS011;44851;45.648;9.004;2022-11-20T15:36:25;6.03;;;4.30;;
59062;SDS011;44851;45.648;9.004;2022-11-20T15:38:50;6.27;;;4.40;;
59062;SDS011;44851;45.648;9.004;2022-11-20T15:41:15;6.77;;;4.23;;
59062;SDS011;44851;45.648;9.004;2022-11-20T15:43:41;7.70;;;4.13;;
59062;SDS011;44851;45.648;9.004;2022-11-20T15:46:09;6.50;;;5.07;;
59062;SDS011;44851;45.648;9.004;2022-11-20T15:48:38;10.67;;;4.73;;
59062;SDS011;44851;45.648;9.004;2022-11-20T15:53:34;7.00;;;5.20;;
59062;SDS011;44851;45.648;9.004;2022-11-20T15:56:00;8.03;;;5.67;;
59062;SDS011;44851;45.648;9.004;2022-11-20T15:58:26;8.97;;;4.80;;
59062;SDS011;44851;45.648;9.004;2022-11-20T16:00:51;8.33;;;5.57;;
59062;SDS011;44851;45.648;9.004;2022-11-20T16:03:17;8.00;;;6.00;;
59062;SDS011;44851;45.648;9.004;2022-11-20T16:05:44;8.83;;;6.40;;
59062;SDS011;44851;45.648;9.004;2022-11-20T16:08:09;8.10;;;5.40;;
59062;SDS011;44851;45.648;9.004;2022-11-20T16:10:35;8.83;;;7.37;;
59062;SDS011;44851;45.648;9.004;2022-11-20T16:13:01;9.03;;;7.53;;
59062;SDS011;44851;45.648;9.004;2022-11-20T16:15:50;7.27;;;5.73;;
59062;SDS011;44851;45.648;9.004;2022-11-20T16:18:18;7.67;;;5.87;;
59062;SDS011;44851;45.648;9.004;2022-11-20T16:20:45;6.37;;;4.77;;
59062;SDS011;44851;45.648;9.004;2022-11-20T16:23:16;8.73;;;6.67;;
59062;SDS011;44851;45.648;9.004;2022-11-20T16:25:42;11.20;;;8.23;;
59062;SDS011;44851;45.648;9.004;2022-11-20T16:28:08;10.53;;;7.80;;
59062;SDS011;44851;45.648;9.004;2022-11-20T16:30:34;9.23;;;7.37;;
59062;SDS011;44851;45.648;9.004;2022-11-20T16:33:00;7.83;;;6.33;;
59062;SDS011;44851;45.648;9.004;2022-11-20T16:35:27;8.60;;;6.40;;
59062;SDS011;44851;45.648;9.004;2022-11-20T16:37:53;9.07;;;6.53;;
59062;SDS011;44851;45.648;9.004;2022-11-20T16:40:19;10.37;;;6.33;;
59062;SDS011;44851;45.648;9.004;2022-11-20T16:42:44;8.60;;;6.13;;
59062;SDS011;44851;45.648;9.004;2022-11-20T16:45:10;8.03;;;6.33;;
59062;SDS011;44851;45.648;9.004;2022-11-20T16:47:35;10.57;;;6.93;;
59062;SDS011;44851;45.648;9.004;2022-11-20T16:50:01;8.67;;;7.70;;